sensor_id;sensor_type;location;lat;lon;timestamp;temperature;humidity
65462;DHT22;53236;43.666;18.444;2023-04-22T00:00:33;4.50;99.90
65462;DHT22;53236;43.666;18.444;2023-04-22T00:03:01;4.50;99.90
65462;DHT22;53236;43.666;18.444;2023-04-22T00:05:27;4.40;99.90
65462;DHT22;53236;43.666;18.444;2023-04-22T00:07:53;4.30;99.90
65462;DHT22;53236;43.666;18.444;2023-04-22T00:10:19;4.20;99.90
65462;DHT22;53236;43.666;18.444;2023-04-22T00:12:45;4.10;99.90
65462;DHT22;53236;43.666;18.444;2023-04-22T00:15:11;4.00;99.90
65462;DHT22;53236;43.666;18.444;2023-04-22T00:17:37;4.10;99.90
65462;DHT22;53236;43.666;18.444;2023-04-22T00:20:03;4.00;99.90
65462;DHT22;53236;43.666;18.444;2023-04-22T00:22:29;3.90;99.90
65462;DHT22;53236;43.666;18.444;2023-04-22T00:24:54;3.90;99.90
65462;DHT22;53236;43.666;18.444;2023-04-22T00:27:20;3.90;99.90
65462;DHT22;53236;43.666;18.444;2023-04-22T00:29:46;3.90;99.90
65462;DHT22;53236;43.666;18.444;2023-04-22T00:32:12;3.90;99.90
65462;DHT22;53236;43.666;18.444;2023-04-22T00:34:38;3.80;99.90
65462;DHT22;53236;43.666;18.444;2023-04-22T00:37:04;3.80;99.90
65462;DHT22;53236;43.666;18.444;2023-04-22T00:39:30;3.90;99.90
65462;DHT22;53236;43.666;18.444;2023-04-22T00:41:56;3.90;99.90
65462;DHT22;53236;43.666;18.444;2023-04-22T00:44:22;3.90;99.90
65462;DHT22;53236;43.666;18.444;2023-04-22T00:46:48;3.90;99.90
65462;DHT22;53236;43.666;18.444;2023-04-22T00:49:15;3.70;99.90
65462;DHT22;53236;43.666;18.444;2023-04-22T00:51:41;3.70;99.90
65462;DHT22;53236;43.666;18.444;2023-04-22T00:54:07;3.60;99.90
65462;DHT22;53236;43.666;18.444;2023-04-22T00:56:34;3.60;99.90
65462;DHT22;53236;43.666;18.444;2023-04-22T00:59:00;3.50;99.90
65462;DHT22;53236;43.666;18.444;2023-04-22T01:01:27;3.50;99.90
65462;DHT22;53236;43.666;18.444;2023-04-22T01:03:54;3.40;99.90
65462;DHT22;53236;43.666;18.444;2023-04-22T01:06:21;3.40;99.90
65462;DHT22;53236;43.666;18.444;2023-04-22T01:08:48;3.30;99.90
65462;DHT22;53236;43.666;18.444;2023-04-22T01:11:14;3.30;99.90
65462;DHT22;53236;43.666;18.444;2023-04-22T01:13:40;3.20;99.90
65462;DHT22;53236;43.666;18.444;2023-04-22T01:16:07;3.20;99.90
65462;DHT22;53236;43.666;18.444;2023-04-22T01:18:35;3.20;99.90
65462;DHT22;53236;43.666;18.444;2023-04-22T01:21:01;3.20;99.90
65462;DHT22;53236;43.666;18.444;2023-04-22T01:23:27;3.20;99.90
65462;DHT22;53236;43.666;18.444;2023-04-22T01:25:53;3.30;99.90
65462;DHT22;53236;43.666;18.444;2023-04-22T01:28:19;3.20;99.90
65462;DHT22;53236;43.666;18.444;2023-04-22T01:30:47;3.10;99.90
65462;DHT22;53236;43.666;18.444;2023-04-22T01:33:14;3.00;99.90
65462;DHT22;53236;43.666;18.444;2023-04-22T01:35:40;3.00;99.90
65462;DHT22;53236;43.666;18.444;2023-04-22T01:38:08;2.90;99.90
65462;DHT22;53236;43.666;18.444;2023-04-22T01:40:34;2.90;99.90
65462;DHT22;53236;43.666;18.444;2023-04-22T01:43:01;2.80;99.90
65462;DHT22;53236;43.666;18.444;2023-04-22T01:45:27;2.70;99.90
65462;DHT22;53236;43.666;18.444;2023-04-22T01:47:53;2.60;99.90
65462;DHT22;53236;43.666;18.444;2023-04-22T01:50:20;2.60;99.90
65462;DHT22;53236;43.666;18.444;2023-04-22T01:52:46;2.50;99.90
65462;DHT22;53236;43.666;18.444;2023-04-22T01:55:12;2.60;99.90
65462;DHT22;53236;43.666;18.444;2023-04-22T01:57:38;2.60;99.90
65462;DHT22;53236;43.666;18.444;2023-04-22T02:00:05;2.60;99.90
65462;DHT22;53236;43.666;18.444;2023-04-22T02:02:33;2.60;99.90
65462;DHT22;53236;43.666;18.444;2023-04-22T02:04:58;2.60;99.90
65462;DHT22;53236;43.666;18.444;2023-04-22T02:07:24;2.60;99.90
65462;DHT22;53236;43.666;18.444;2023-04-22T02:09:51;2.50;99.90
65462;DHT22;53236;43.666;18.444;2023-04-22T02:12:16;2.60;99.90
65462;DHT22;53236;43.666;18.444;2023-04-22T02:14:42;2.60;99.90
65462;DHT22;53236;43.666;18.444;2023-04-22T02:17:08;2.50;99.90
65462;DHT22;53236;43.666;18.444;2023-04-22T02:19:34;2.50;99.90
65462;DHT22;53236;43.666;18.444;2023-04-22T02:22:00;2.50;99.90
65462;DHT22;53236;43.666;18.444;2023-04-22T02:24:26;2.50;99.90
65462;DHT22;53236;43.666;18.444;2023-04-22T02:26:52;2.50;99.90
65462;DHT22;53236;43.666;18.444;2023-04-22T02:29:18;2.50;99.90
65462;DHT22;53236;43.666;18.444;2023-04-22T02:31:43;2.50;99.90
65462;DHT22;53236;43.666;18.444;2023-04-22T02:34:09;2.50;99.90
65462;DHT22;53236;43.666;18.444;2023-04-22T02:36:35;2.60;99.90
65462;DHT22;53236;43.666;18.444;2023-04-22T02:39:01;2.60;99.90
65462;DHT22;53236;43.666;18.444;2023-04-22T02:41:30;2.70;99.90
65462;DHT22;53236;43.666;18.444;2023-04-22T02:43:56;2.70;99.90
65462;DHT22;53236;43.666;18.444;2023-04-22T02:46:22;2.70;99.90
65462;DHT22;53236;43.666;18.444;2023-04-22T02:48:47;2.80;99.90
65462;DHT22;53236;43.666;18.444;2023-04-22T02:51:14;2.80;99.90
65462;DHT22;53236;43.666;18.444;2023-04-22T02:53:39;2.90;99.90
65462;DHT22;53236;43.666;18.444;2023-04-22T02:56:06;2.90;99.90
65462;DHT22;53236;43.666;18.444;2023-04-22T02:58:33;2.90;99.90
65462;DHT22;53236;43.666;18.444;2023-04-22T03:00:59;2.90;99.90
65462;DHT22;53236;43.666;18.444;2023-04-22T03:03:25;3.00;99.90
65462;DHT22;53236;43.666;18.444;2023-04-22T03:05:51;2.80;99.90
65462;DHT22;53236;43.666;18.444;2023-04-22T03:08:17;2.80;99.90
65462;DHT22;53236;43.666;18.444;2023-04-22T03:10:43;2.80;99.90
65462;DHT22;53236;43.666;18.444;2023-04-22T03:13:09;2.90;99.90
65462;DHT22;53236;43.666;18.444;2023-04-22T03:15:34;3.00;99.90
65462;DHT22;53236;43.666;18.444;2023-04-22T03:18:00;3.00;99.90
65462;DHT22;53236;43.666;18.444;2023-04-22T03:20:26;3.00;99.90
65462;DHT22;53236;43.666;18.444;2023-04-22T03:22:51;3.10;99.90
65462;DHT22;53236;43.666;18.444;2023-04-22T03:25:18;3.00;99.90
65462;DHT22;53236;43.666;18.444;2023-04-22T03:27:44;2.90;99.90
65462;DHT22;53236;43.666;18.444;2023-04-22T03:30:10;2.90;99.90
65462;DHT22;53236;43.666;18.444;2023-04-22T03:32:35;2.90;99.90
65462;DHT22;53236;43.666;18.444;2023-04-22T03:35:01;3.00;99.90
65462;DHT22;53236;43.666;18.444;2023-04-22T03:37:27;3.00;99.90
65462;DHT22;53236;43.666;18.444;2023-04-22T03:39:53;3.10;99.90
65462;DHT22;53236;43.666;18.444;2023-04-22T03:42:18;3.10;99.90
65462;DHT22;53236;43.666;18.444;2023-04-22T03:44:44;3.10;99.90
65462;DHT22;53236;43.666;18.444;2023-04-22T03:47:10;3.10;99.90
65462;DHT22;53236;43.666;18.444;2023-04-22T03:49:36;3.20;99.90
65462;DHT22;53236;43.666;18.444;2023-04-22T03:52:01;3.20;99.90
65462;DHT22;53236;43.666;18.444;2023-04-22T03:54:28;3.20;99.90
65462;DHT22;53236;43.666;18.444;2023-04-22T03:56:53;3.20;99.90
65462;DHT22;53236;43.666;18.444;2023-04-22T03:59:19;3.20;99.90
65462;DHT22;53236;43.666;18.444;2023-04-22T04:01:46;3.20;99.90
65462;DHT22;53236;43.666;18.444;2023-04-22T04:04:12;3.30;99.90
65462;DHT22;53236;43.666;18.444;2023-04-22T04:06:37;3.30;99.90
65462;DHT22;53236;43.666;18.444;2023-04-22T04:09:04;3.30;99.90
65462;DHT22;53236;43.666;18.444;2023-04-22T04:11:30;3.30;99.90
65462;DHT22;53236;43.666;18.444;2023-04-22T04:13:56;3.30;99.90
65462;DHT22;53236;43.666;18.444;2023-04-22T04:16:23;3.20;99.90
65462;DHT22;53236;43.666;18.444;2023-04-22T04:18:49;3.10;99.90
65462;DHT22;53236;43.666;18.444;2023-04-22T04:21:15;3.10;99.90
65462;DHT22;53236;43.666;18.444;2023-04-22T04:23:41;3.10;99.90
65462;DHT22;53236;43.666;18.444;2023-04-22T04:26:07;3.20;99.90
65462;DHT22;53236;43.666;18.444;2023-04-22T04:28:33;3.10;99.90
65462;DHT22;53236;43.666;18.444;2023-04-22T04:30:59;2.90;99.90
65462;DHT22;53236;43.666;18.444;2023-04-22T04:33:28;2.90;99.90
65462;DHT22;53236;43.666;18.444;2023-04-22T04:35:54;2.80;99.90
65462;DHT22;53236;43.666;18.444;2023-04-22T04:38:19;2.90;99.90
65462;DHT22;53236;43.666;18.444;2023-04-22T04:40:49;2.90;99.90
65462;DHT22;53236;43.666;18.444;2023-04-22T04:43:15;3.00;99.90
65462;DHT22;53236;43.666;18.444;2023-04-22T04:45:41;3.00;99.90
65462;DHT22;53236;43.666;18.444;2023-04-22T04:48:12;2.90;99.90
65462;DHT22;53236;43.666;18.444;2023-04-22T04:50:42;2.90;99.90
65462;DHT22;53236;43.666;18.444;2023-04-22T04:53:08;2.90;99.90
65462;DHT22;53236;43.666;18.444;2023-04-22T04:55:35;2.80;99.90
65462;DHT22;53236;43.666;18.444;2023-04-22T04:58:01;2.90;99.90
65462;DHT22;53236;43.666;18.444;2023-04-22T05:00:27;3.00;99.90
65462;DHT22;53236;43.666;18.444;2023-04-22T05:02:52;3.00;99.90
65462;DHT22;53236;43.666;18.444;2023-04-22T05:05:18;3.10;99.90
65462;DHT22;53236;43.666;18.444;2023-04-22T05:07:44;3.20;99.90
65462;DHT22;53236;43.666;18.444;2023-04-22T05:10:10;3.30;99.90
65462;DHT22;53236;43.666;18.444;2023-04-22T05:12:36;3.40;99.90
65462;DHT22;53236;43.666;18.444;2023-04-22T05:15:02;3.40;99.90
65462;DHT22;53236;43.666;18.444;2023-04-22T05:17:28;3.30;99.90
65462;DHT22;53236;43.666;18.444;2023-04-22T05:19:54;3.40;99.90
65462;DHT22;53236;43.666;18.444;2023-04-22T05:22:20;3.50;99.90
65462;DHT22;53236;43.666;18.444;2023-04-22T05:24:46;3.70;99.90
65462;DHT22;53236;43.666;18.444;2023-04-22T05:27:12;4.00;99.90
65462;DHT22;53236;43.666;18.444;2023-04-22T05:29:38;3.90;99.90
65462;DHT22;53236;43.666;18.444;2023-04-22T05:32:03;4.00;99.90
65462;DHT22;53236;43.666;18.444;2023-04-22T05:34:29;4.30;99.90
65462;DHT22;53236;43.666;18.444;2023-04-22T05:36:56;4.50;99.90
65462;DHT22;53236;43.666;18.444;2023-04-22T05:39:21;4.60;99.90
65462;DHT22;53236;43.666;18.444;2023-04-22T05:41:47;4.80;99.90
65462;DHT22;53236;43.666;18.444;2023-04-22T05:44:13;4.90;99.90
65462;DHT22;53236;43.666;18.444;2023-04-22T05:46:39;5.10;99.90
65462;DHT22;53236;43.666;18.444;2023-04-22T05:49:04;5.10;99.90
65462;DHT22;53236;43.666;18.444;2023-04-22T05:51:30;5.40;99.90
65462;DHT22;53236;43.666;18.444;2023-04-22T05:53:57;5.30;99.90
65462;DHT22;53236;43.666;18.444;2023-04-22T05:56:23;5.60;99.90
65462;DHT22;53236;43.666;18.444;2023-04-22T05:58:48;5.80;99.90
65462;DHT22;53236;43.666;18.444;2023-04-22T06:01:14;6.10;99.90
65462;DHT22;53236;43.666;18.444;2023-04-22T06:03:40;6.50;99.90
65462;DHT22;53236;43.666;18.444;2023-04-22T06:06:05;6.90;99.90
65462;DHT22;53236;43.666;18.444;2023-04-22T06:08:31;7.20;99.90
65462;DHT22;53236;43.666;18.444;2023-04-22T06:10:57;7.70;99.90
65462;DHT22;53236;43.666;18.444;2023-04-22T06:13:23;8.60;99.90
65462;DHT22;53236;43.666;18.444;2023-04-22T06:15:49;9.10;99.90
65462;DHT22;53236;43.666;18.444;2023-04-22T06:18:15;9.70;99.90
65462;DHT22;53236;43.666;18.444;2023-04-22T06:20:41;10.50;99.90
65462;DHT22;53236;43.666;18.444;2023-04-22T06:23:07;11.50;99.90
65462;DHT22;53236;43.666;18.444;2023-04-22T06:25:32;12.50;98.60
65462;DHT22;53236;43.666;18.444;2023-04-22T06:27:58;12.90;90.60
65462;DHT22;53236;43.666;18.444;2023-04-22T06:30:25;13.60;92.70
65462;DHT22;53236;43.666;18.444;2023-04-22T06:32:51;14.40;81.10
65462;DHT22;53236;43.666;18.444;2023-04-22T06:35:17;15.10;76.90
65462;DHT22;53236;43.666;18.444;2023-04-22T06:37:43;15.60;73.70
65462;DHT22;53236;43.666;18.444;2023-04-22T06:40:09;16.70;69.30
65462;DHT22;53236;43.666;18.444;2023-04-22T06:42:35;17.30;63.30
65462;DHT22;53236;43.666;18.444;2023-04-22T06:45:02;18.10;63.20
65462;DHT22;53236;43.666;18.444;2023-04-22T06:47:28;18.60;61.40
65462;DHT22;53236;43.666;18.444;2023-04-22T06:49:54;18.80;60.50
65462;DHT22;53236;43.666;18.444;2023-04-22T06:52:20;19.90;58.80
65462;DHT22;53236;43.666;18.444;2023-04-22T06:54:46;20.30;57.00
65462;DHT22;53236;43.666;18.444;2023-04-22T06:57:12;20.80;54.70
65462;DHT22;53236;43.666;18.444;2023-04-22T06:59:37;21.00;53.10
65462;DHT22;53236;43.666;18.444;2023-04-22T07:02:03;21.30;53.40
65462;DHT22;53236;43.666;18.444;2023-04-22T07:04:30;21.80;51.80
65462;DHT22;53236;43.666;18.444;2023-04-22T07:06:56;22.60;52.00
65462;DHT22;53236;43.666;18.444;2023-04-22T07:09:22;22.90;50.40
65462;DHT22;53236;43.666;18.444;2023-04-22T07:11:48;23.70;48.60
65462;DHT22;53236;43.666;18.444;2023-04-22T07:14:14;23.60;49.20
65462;DHT22;53236;43.666;18.444;2023-04-22T07:16:40;23.90;47.20
65462;DHT22;53236;43.666;18.444;2023-04-22T07:19:06;23.30;49.90
65462;DHT22;53236;43.666;18.444;2023-04-22T07:21:32;24.10;47.60
65462;DHT22;53236;43.666;18.444;2023-04-22T07:23:57;24.40;47.90
65462;DHT22;53236;43.666;18.444;2023-04-22T07:26:23;23.80;49.20
65462;DHT22;53236;43.666;18.444;2023-04-22T07:28:50;24.50;48.10
65462;DHT22;53236;43.666;18.444;2023-04-22T07:31:16;25.10;46.70
65462;DHT22;53236;43.666;18.444;2023-04-22T07:33:42;25.20;45.60
65462;DHT22;53236;43.666;18.444;2023-04-22T07:36:07;23.90;45.30
65462;DHT22;53236;43.666;18.444;2023-04-22T07:38:33;24.90;47.00
65462;DHT22;53236;43.666;18.444;2023-04-22T07:40:59;26.90;44.00
65462;DHT22;53236;43.666;18.444;2023-04-22T07:43:25;27.20;42.10
65462;DHT22;53236;43.666;18.444;2023-04-22T07:45:51;26.20;43.40
65462;DHT22;53236;43.666;18.444;2023-04-22T07:48:16;24.80;44.60
65462;DHT22;53236;43.666;18.444;2023-04-22T07:50:42;23.80;46.80
65462;DHT22;53236;43.666;18.444;2023-04-22T07:53:08;24.40;47.00
65462;DHT22;53236;43.666;18.444;2023-04-22T07:55:35;24.80;45.00
65462;DHT22;53236;43.666;18.444;2023-04-22T07:58:01;25.80;43.50
65462;DHT22;53236;43.666;18.444;2023-04-22T08:00:34;25.80;44.00
65462;DHT22;53236;43.666;18.444;2023-04-22T08:03:01;25.90;43.10
65462;DHT22;53236;43.666;18.444;2023-04-22T08:05:27;26.00;42.70
65462;DHT22;53236;43.666;18.444;2023-04-22T08:07:52;27.00;42.30
65462;DHT22;53236;43.666;18.444;2023-04-22T08:10:18;27.50;40.60
65462;DHT22;53236;43.666;18.444;2023-04-22T08:12:44;27.50;40.10
65462;DHT22;53236;43.666;18.444;2023-04-22T08:15:11;27.60;39.90
65462;DHT22;53236;43.666;18.444;2023-04-22T08:17:37;27.90;39.80
65462;DHT22;53236;43.666;18.444;2023-04-22T08:20:03;28.00;39.60
65462;DHT22;53236;43.666;18.444;2023-04-22T08:22:29;28.80;38.70
65462;DHT22;53236;43.666;18.444;2023-04-22T08:24:56;29.20;38.70
65462;DHT22;53236;43.666;18.444;2023-04-22T08:27:22;28.50;39.80
65462;DHT22;53236;43.666;18.444;2023-04-22T08:29:48;28.70;39.00
65462;DHT22;53236;43.666;18.444;2023-04-22T08:32:14;27.50;39.30
65462;DHT22;53236;43.666;18.444;2023-04-22T08:34:40;28.10;38.60
65462;DHT22;53236;43.666;18.444;2023-04-22T08:37:06;27.70;40.50
65462;DHT22;53236;43.666;18.444;2023-04-22T08:39:32;28.30;39.00
65462;DHT22;53236;43.666;18.444;2023-04-22T08:41:57;28.60;38.80
65462;DHT22;53236;43.666;18.444;2023-04-22T08:44:23;28.70;38.80
65462;DHT22;53236;43.666;18.444;2023-04-22T08:46:50;28.60;39.30
65462;DHT22;53236;43.666;18.444;2023-04-22T08:49:17;29.20;38.40
65462;DHT22;53236;43.666;18.444;2023-04-22T08:51:44;29.20;37.90
65462;DHT22;53236;43.666;18.444;2023-04-22T08:54:11;28.80;37.50
65462;DHT22;53236;43.666;18.444;2023-04-22T08:56:41;28.80;37.30
65462;DHT22;53236;43.666;18.444;2023-04-22T08:59:12;28.60;37.40
65462;DHT22;53236;43.666;18.444;2023-04-22T09:01:39;28.80;37.40
65462;DHT22;53236;43.666;18.444;2023-04-22T09:04:05;28.80;37.50
65462;DHT22;53236;43.666;18.444;2023-04-22T09:06:32;28.50;38.30
65462;DHT22;53236;43.666;18.444;2023-04-22T09:08:59;28.60;37.40
65462;DHT22;53236;43.666;18.444;2023-04-22T09:11:30;28.40;37.40
65462;DHT22;53236;43.666;18.444;2023-04-22T09:13:56;27.10;37.60
65462;DHT22;53236;43.666;18.444;2023-04-22T09:16:22;26.20;39.30
65462;DHT22;53236;43.666;18.444;2023-04-22T09:18:49;26.50;39.90
65462;DHT22;53236;43.666;18.444;2023-04-22T09:21:15;27.00;40.20
65462;DHT22;53236;43.666;18.444;2023-04-22T09:23:52;28.10;38.00
65462;DHT22;53236;43.666;18.444;2023-04-22T09:26:22;28.30;36.60
65462;DHT22;53236;43.666;18.444;2023-04-22T09:31:18;25.80;37.20
65462;DHT22;53236;43.666;18.444;2023-04-22T09:34:02;25.30;38.10
65462;DHT22;53236;43.666;18.444;2023-04-22T09:36:29;24.90;38.00
65462;DHT22;53236;43.666;18.444;2023-04-22T09:39:01;25.40;39.30
65462;DHT22;53236;43.666;18.444;2023-04-22T09:41:36;23.80;39.20
65462;DHT22;53236;43.666;18.444;2023-04-22T09:44:13;23.20;40.80
65462;DHT22;53236;43.666;18.444;2023-04-22T09:46:41;23.00;40.90
65462;DHT22;53236;43.666;18.444;2023-04-22T09:49:07;23.10;40.00
65462;DHT22;53236;43.666;18.444;2023-04-22T09:51:33;22.80;39.90
65462;DHT22;53236;43.666;18.444;2023-04-22T09:54:04;22.40;40.00
65462;DHT22;53236;43.666;18.444;2023-04-22T09:56:46;21.90;44.00
65462;DHT22;53236;43.666;18.444;2023-04-22T09:59:28;21.60;45.30
65462;DHT22;53236;43.666;18.444;2023-04-22T10:01:59;21.60;44.10
65462;DHT22;53236;43.666;18.444;2023-04-22T10:04:25;21.20;42.80
65462;DHT22;53236;43.666;18.444;2023-04-22T10:06:52;21.10;44.60
65462;DHT22;53236;43.666;18.444;2023-04-22T10:09:20;20.70;44.60
65462;DHT22;53236;43.666;18.444;2023-04-22T10:11:48;20.40;45.90
65462;DHT22;53236;43.666;18.444;2023-04-22T10:14:14;20.40;45.20
65462;DHT22;53236;43.666;18.444;2023-04-22T10:16:42;20.20;45.40
65462;DHT22;53236;43.666;18.444;2023-04-22T10:19:13;19.80;46.30
65462;DHT22;53236;43.666;18.444;2023-04-22T10:21:40;19.70;46.20
65462;DHT22;53236;43.666;18.444;2023-04-22T10:24:14;19.80;45.90
65462;DHT22;53236;43.666;18.444;2023-04-22T10:26:46;19.40;45.70
65462;DHT22;53236;43.666;18.444;2023-04-22T10:29:14;19.50;46.10
65462;DHT22;53236;43.666;18.444;2023-04-22T10:34:45;18.30;46.10
65462;DHT22;53236;43.666;18.444;2023-04-22T10:37:12;18.10;46.60
65462;DHT22;53236;43.666;18.444;2023-04-22T10:39:39;18.00;45.70
65462;DHT22;53236;43.666;18.444;2023-04-22T10:42:11;17.60;47.90
65462;DHT22;53236;43.666;18.444;2023-04-22T10:44:51;17.80;47.40
65462;DHT22;53236;43.666;18.444;2023-04-22T10:47:34;17.80;48.30
65462;DHT22;53236;43.666;18.444;2023-04-22T10:52:50;17.80;49.60
65462;DHT22;53236;43.666;18.444;2023-04-22T10:55:16;17.80;50.10
65462;DHT22;53236;43.666;18.444;2023-04-22T10:57:44;17.90;50.00
65462;DHT22;53236;43.666;18.444;2023-04-22T11:03:06;17.40;53.30
65462;DHT22;53236;43.666;18.444;2023-04-22T11:05:33;17.20;52.40
65462;DHT22;53236;43.666;18.444;2023-04-22T11:08:11;16.90;53.50
65462;DHT22;53236;43.666;18.444;2023-04-22T11:10:50;16.60;54.40
65462;DHT22;53236;43.666;18.444;2023-04-22T11:13:20;16.50;54.70
65462;DHT22;53236;43.666;18.444;2023-04-22T11:15:52;16.30;56.00
65462;DHT22;53236;43.666;18.444;2023-04-22T11:18:22;16.30;56.60
65462;DHT22;53236;43.666;18.444;2023-04-22T11:20:50;16.20;58.70
65462;DHT22;53236;43.666;18.444;2023-04-22T11:23:27;16.20;57.10
65462;DHT22;53236;43.666;18.444;2023-04-22T11:26:03;16.10;56.30
65462;DHT22;53236;43.666;18.444;2023-04-22T11:28:29;16.00;55.60
65462;DHT22;53236;43.666;18.444;2023-04-22T11:31:06;16.20;56.50
65462;DHT22;53236;43.666;18.444;2023-04-22T11:33:36;16.20;55.80
65462;DHT22;53236;43.666;18.444;2023-04-22T11:36:04;16.20;56.00
65462;DHT22;53236;43.666;18.444;2023-04-22T11:38:30;16.30;55.70
65462;DHT22;53236;43.666;18.444;2023-04-22T11:40:56;16.30;54.70
65462;DHT22;53236;43.666;18.444;2023-04-22T11:43:23;16.30;55.80
65462;DHT22;53236;43.666;18.444;2023-04-22T11:45:48;16.20;55.10
65462;DHT22;53236;43.666;18.444;2023-04-22T11:48:14;16.00;54.80
65462;DHT22;53236;43.666;18.444;2023-04-22T11:50:41;16.00;55.40
65462;DHT22;53236;43.666;18.444;2023-04-22T11:53:16;16.10;54.70
65462;DHT22;53236;43.666;18.444;2023-04-22T11:55:44;16.30;54.80
65462;DHT22;53236;43.666;18.444;2023-04-22T11:58:19;16.60;54.80
65462;DHT22;53236;43.666;18.444;2023-04-22T12:00:50;16.80;52.80
65462;DHT22;53236;43.666;18.444;2023-04-22T12:03:21;16.80;54.30
65462;DHT22;53236;43.666;18.444;2023-04-22T12:05:58;16.80;53.10
65462;DHT22;53236;43.666;18.444;2023-04-22T12:08:29;16.80;52.30
65462;DHT22;53236;43.666;18.444;2023-04-22T12:11:00;16.90;51.40
65462;DHT22;53236;43.666;18.444;2023-04-22T12:13:29;17.00;51.30
65462;DHT22;53236;43.666;18.444;2023-04-22T12:15:58;17.10;49.50
65462;DHT22;53236;43.666;18.444;2023-04-22T12:18:35;17.10;52.30
65462;DHT22;53236;43.666;18.444;2023-04-22T12:23:40;17.30;49.50
65462;DHT22;53236;43.666;18.444;2023-04-22T12:26:06;17.40;50.40
65462;DHT22;53236;43.666;18.444;2023-04-22T12:28:32;17.50;50.00
65462;DHT22;53236;43.666;18.444;2023-04-22T12:30:58;17.40;52.00
65462;DHT22;53236;43.666;18.444;2023-04-22T12:33:24;17.40;51.30
65462;DHT22;53236;43.666;18.444;2023-04-22T12:35:50;17.30;50.40
65462;DHT22;53236;43.666;18.444;2023-04-22T12:38:17;17.40;49.40
65462;DHT22;53236;43.666;18.444;2023-04-22T12:40:43;17.20;49.80
65462;DHT22;53236;43.666;18.444;2023-04-22T12:43:09;17.30;50.70
65462;DHT22;53236;43.666;18.444;2023-04-22T12:45:35;17.40;51.30
65462;DHT22;53236;43.666;18.444;2023-04-22T12:48:01;17.30;49.70
65462;DHT22;53236;43.666;18.444;2023-04-22T12:50:27;17.30;50.60
65462;DHT22;53236;43.666;18.444;2023-04-22T12:52:52;17.40;51.50
65462;DHT22;53236;43.666;18.444;2023-04-22T12:55:19;17.20;50.50
65462;DHT22;53236;43.666;18.444;2023-04-22T12:57:47;17.20;51.50
65462;DHT22;53236;43.666;18.444;2023-04-22T13:00:13;17.10;49.70
65462;DHT22;53236;43.666;18.444;2023-04-22T13:02:47;17.00;51.10
65462;DHT22;53236;43.666;18.444;2023-04-22T13:05:13;16.70;50.50
65462;DHT22;53236;43.666;18.444;2023-04-22T13:07:39;16.70;51.50
65462;DHT22;53236;43.666;18.444;2023-04-22T13:10:10;16.70;49.40
65462;DHT22;53236;43.666;18.444;2023-04-22T13:12:36;16.70;49.70
65462;DHT22;53236;43.666;18.444;2023-04-22T13:15:03;16.70;50.40
65462;DHT22;53236;43.666;18.444;2023-04-22T13:17:29;16.90;50.40
65462;DHT22;53236;43.666;18.444;2023-04-22T13:19:55;17.00;49.90
65462;DHT22;53236;43.666;18.444;2023-04-22T13:22:21;17.10;49.30
65462;DHT22;53236;43.666;18.444;2023-04-22T13:24:48;17.20;50.60
65462;DHT22;53236;43.666;18.444;2023-04-22T13:27:13;17.10;50.60
65462;DHT22;53236;43.666;18.444;2023-04-22T13:29:39;17.10;51.00
65462;DHT22;53236;43.666;18.444;2023-04-22T13:32:06;17.20;52.00
65462;DHT22;53236;43.666;18.444;2023-04-22T13:34:32;17.30;50.80
65462;DHT22;53236;43.666;18.444;2023-04-22T13:36:57;17.30;51.70
65462;DHT22;53236;43.666;18.444;2023-04-22T13:39:24;17.20;50.00
65462;DHT22;53236;43.666;18.444;2023-04-22T13:41:50;17.00;50.70
65462;DHT22;53236;43.666;18.444;2023-04-22T13:44:16;17.10;50.70
65462;DHT22;53236;43.666;18.444;2023-04-22T13:46:42;17.00;52.20
65462;DHT22;53236;43.666;18.444;2023-04-22T13:49:08;17.20;52.70
65462;DHT22;53236;43.666;18.444;2023-04-22T13:51:34;17.20;51.10
65462;DHT22;53236;43.666;18.444;2023-04-22T13:54:02;16.90;50.00
65462;DHT22;53236;43.666;18.444;2023-04-22T13:56:29;16.90;52.30
65462;DHT22;53236;43.666;18.444;2023-04-22T13:58:55;16.90;50.50
65462;DHT22;53236;43.666;18.444;2023-04-22T14:01:21;16.60;50.10
65462;DHT22;53236;43.666;18.444;2023-04-22T14:03:47;16.70;49.80
65462;DHT22;53236;43.666;18.444;2023-04-22T14:06:14;16.90;49.50
65462;DHT22;53236;43.666;18.444;2023-04-22T14:08:40;17.00;49.10
65462;DHT22;53236;43.666;18.444;2023-04-22T14:11:07;17.00;50.40
65462;DHT22;53236;43.666;18.444;2023-04-22T14:13:33;17.20;48.70
65462;DHT22;53236;43.666;18.444;2023-04-22T14:15:59;17.20;48.70
65462;DHT22;53236;43.666;18.444;2023-04-22T14:18:26;17.20;51.00
65462;DHT22;53236;43.666;18.444;2023-04-22T14:20:52;17.20;52.30
65462;DHT22;53236;43.666;18.444;2023-04-22T14:23:18;17.20;52.10
65462;DHT22;53236;43.666;18.444;2023-04-22T14:25:45;17.30;49.80
65462;DHT22;53236;43.666;18.444;2023-04-22T14:28:12;17.30;48.40
65462;DHT22;53236;43.666;18.444;2023-04-22T14:30:38;17.30;48.20
65462;DHT22;53236;43.666;18.444;2023-04-22T14:33:04;17.20;48.10
65462;DHT22;53236;43.666;18.444;2023-04-22T14:35:35;17.10;48.10
65462;DHT22;53236;43.666;18.444;2023-04-22T14:38:02;17.10;48.10
65462;DHT22;53236;43.666;18.444;2023-04-22T14:40:29;17.10;48.60
65462;DHT22;53236;43.666;18.444;2023-04-22T14:42:56;16.80;49.50
65462;DHT22;53236;43.666;18.444;2023-04-22T14:45:23;16.80;50.50
65462;DHT22;53236;43.666;18.444;2023-04-22T14:47:49;16.80;49.30
65462;DHT22;53236;43.666;18.444;2023-04-22T14:50:15;16.90;50.00
65462;DHT22;53236;43.666;18.444;2023-04-22T14:52:41;16.70;50.00
65462;DHT22;53236;43.666;18.444;2023-04-22T14:55:07;16.70;49.60
65462;DHT22;53236;43.666;18.444;2023-04-22T14:57:32;16.80;50.40
65462;DHT22;53236;43.666;18.444;2023-04-22T14:59:58;16.80;50.10
65462;DHT22;53236;43.666;18.444;2023-04-22T15:02:24;16.80;50.30
65462;DHT22;53236;43.666;18.444;2023-04-22T15:04:50;16.80;49.20
65462;DHT22;53236;43.666;18.444;2023-04-22T15:07:16;16.70;48.30
65462;DHT22;53236;43.666;18.444;2023-04-22T15:09:42;16.70;49.10
65462;DHT22;53236;43.666;18.444;2023-04-22T15:12:08;16.70;48.70
65462;DHT22;53236;43.666;18.444;2023-04-22T15:14:34;16.60;51.30
65462;DHT22;53236;43.666;18.444;2023-04-22T15:17:01;16.60;50.30
65462;DHT22;53236;43.666;18.444;2023-04-22T15:19:27;16.60;50.90
65462;DHT22;53236;43.666;18.444;2023-04-22T15:21:52;16.70;50.10
65462;DHT22;53236;43.666;18.444;2023-04-22T15:24:18;16.70;50.10
65462;DHT22;53236;43.666;18.444;2023-04-22T15:26:49;16.60;49.60
65462;DHT22;53236;43.666;18.444;2023-04-22T15:29:16;16.50;51.20
65462;DHT22;53236;43.666;18.444;2023-04-22T15:31:43;16.50;51.60
65462;DHT22;53236;43.666;18.444;2023-04-22T15:34:10;16.50;51.60